createdAt,value
2022-11-02T00:02:02.933Z,18.68
2022-11-02T00:04:30.719Z,18.66
2022-11-02T00:07:04.494Z,18.68
2022-11-02T00:09:39.149Z,18.60
2022-11-02T00:12:11.413Z,18.50
2022-11-02T00:14:44.956Z,18.41
2022-11-02T00:17:13.045Z,18.39
2022-11-02T00:19:40.818Z,18.30
2022-11-02T00:22:09.173Z,18.32
2022-11-02T00:24:37.633Z,18.33
2022-11-02T00:27:05.633Z,18.28
2022-11-02T00:29:59.517Z,18.27
2022-11-02T00:32:28.703Z,18.35
2022-11-02T00:34:57.559Z,18.36
2022-11-02T00:37:50.283Z,18.43
2022-11-02T00:40:19.186Z,18.34
2022-11-02T00:42:49.144Z,18.34
2022-11-02T00:45:23.556Z,18.37
2022-11-02T00:47:52.533Z,18.34
2022-11-02T00:50:20.646Z,18.35
2022-11-02T00:52:48.076Z,18.38
2022-11-02T00:55:16.198Z,18.46
2022-11-02T00:57:45.574Z,18.34
2022-11-02T01:00:15.594Z,18.33
2022-11-02T01:02:43.925Z,18.39
2022-11-02T01:05:12.942Z,18.36
2022-11-02T01:07:41.495Z,18.43
2022-11-02T01:10:11.405Z,18.47
2022-11-02T01:12:40.925Z,18.49
2022-11-02T01:15:11.738Z,18.49
2022-11-02T01:17:40.160Z,18.38
2022-11-02T01:20:10.294Z,18.35
2022-11-02T01:22:38.146Z,18.32
2022-11-02T01:25:06.822Z,18.26
2022-11-02T01:27:36.098Z,18.23
2022-11-02T01:30:06.069Z,18.31
2022-11-02T01:32:33.844Z,18.32
2022-11-02T01:35:03.299Z,18.27
2022-11-02T01:37:31.892Z,18.24
2022-11-02T01:39:59.546Z,18.25
2022-11-02T01:42:29.080Z,18.11
2022-11-02T01:44:57.174Z,18.19
2022-11-02T01:47:33.502Z,18.14
2022-11-02T01:50:12.582Z,18.13
2022-11-02T01:52:40.687Z,18.14
2022-11-02T01:55:33.501Z,18.10
2022-11-02T01:58:07.809Z,17.97
2022-11-02T02:00:36.309Z,18.07
2022-11-02T02:03:18.387Z,18.04
2022-11-02T02:05:58.040Z,18.03
2022-11-02T02:08:27.559Z,18.03
2022-11-02T02:10:59.635Z,18.06
2022-11-02T02:13:29.531Z,18.04
2022-11-02T02:16:41.211Z,17.96
2022-11-02T02:19:37.321Z,17.90
2022-11-02T02:22:16.652Z,17.79
2022-11-02T02:25:26.321Z,17.77
2022-11-02T02:28:20.935Z,17.65
2022-11-02T02:31:18.108Z,17.65
2022-11-02T02:34:12.290Z,17.60
2022-11-02T02:36:52.699Z,17.63
2022-11-02T02:39:46.669Z,17.66
2022-11-02T02:42:30.725Z,17.64
2022-11-02T02:45:35.775Z,17.57
2022-11-02T02:48:09.783Z,17.62
2022-11-02T02:51:03.143Z,17.53
2022-11-02T02:53:39.255Z,17.47
2022-11-02T02:56:08.305Z,17.59
2022-11-02T02:58:51.532Z,17.67
2022-11-02T03:01:20.263Z,17.69
2022-11-02T03:03:48.767Z,17.62
2022-11-02T03:06:28.489Z,17.56
2022-11-02T03:09:10.658Z,17.59
2022-11-02T03:11:56.480Z,17.68
2022-11-02T03:14:39.161Z,17.68
2022-11-02T03:17:15.675Z,17.78
2022-11-02T03:19:53.972Z,17.76
2022-11-02T03:22:34.282Z,17.80
2022-11-02T03:25:20.692Z,17.83
2022-11-02T03:28:08.488Z,17.86
2022-11-02T03:30:45.316Z,17.91
2022-11-02T03:33:26.784Z,17.96
2022-11-02T03:36:03.056Z,17.96
2022-11-02T03:38:51.264Z,17.97
2022-11-02T03:41:22.583Z,17.85
2022-11-02T03:44:03.745Z,17.97
2022-11-02T03:46:34.860Z,18.02
2022-11-02T03:49:13.952Z,18.07
2022-11-02T03:51:44.443Z,18.05
2022-11-02T03:55:08.709Z,17.97
2022-11-02T03:57:52.816Z,17.90
2022-11-02T04:00:28.143Z,17.90
2022-11-02T04:03:08.672Z,17.89
2022-11-02T04:05:41.284Z,17.74
2022-11-02T04:08:33.628Z,17.76
2022-11-02T04:11:24.580Z,17.83
2022-11-02T04:14:12.938Z,17.82
2022-11-02T04:16:44.743Z,17.93
2022-11-02T04:19:28.427Z,17.97
2022-11-02T04:22:21.071Z,17.94
2022-11-02T04:25:12.430Z,17.98
2022-11-02T04:27:41.482Z,17.99
2022-11-02T04:30:12.352Z,17.96
2022-11-02T04:33:01.591Z,17.89
2022-11-02T04:35:44.613Z,17.83
2022-11-02T04:38:31.518Z,17.83
2022-11-02T04:41:38.547Z,17.88
2022-11-02T04:44:18.134Z,17.88
2022-11-02T04:46:53.597Z,17.86
2022-11-02T04:49:24.532Z,17.85
2022-11-02T04:51:53.628Z,17.73
2022-11-02T04:54:21.729Z,17.68
2022-11-02T04:57:02.392Z,17.67
2022-11-02T04:59:31.264Z,17.76
2022-11-02T05:01:59.961Z,17.81
2022-11-02T05:04:29.387Z,17.81
2022-11-02T05:07:01.498Z,17.83
2022-11-02T05:09:34.826Z,17.83
2022-11-02T05:12:05.675Z,17.87
2022-11-02T05:14:34.732Z,17.91
2022-11-02T05:17:03.148Z,17.92
2022-11-02T05:19:31.620Z,17.86
2022-11-02T05:22:01.744Z,17.73
2022-11-02T05:24:30.956Z,17.76
2022-11-02T05:26:58.712Z,17.81
2022-11-02T05:29:27.407Z,17.81
2022-11-02T05:31:55.136Z,17.75
2022-11-02T05:34:23.522Z,17.79
2022-11-02T05:36:51.398Z,17.80
2022-11-02T05:39:19.121Z,17.77
2022-11-02T05:41:47.725Z,17.79
2022-11-02T05:44:16.226Z,17.80
2022-11-02T05:46:45.677Z,17.76
2022-11-02T05:49:13.338Z,17.65
2022-11-02T05:51:41.215Z,17.62
2022-11-02T05:54:09.113Z,17.59
2022-11-02T05:56:36.981Z,17.57
2022-11-02T05:59:04.436Z,17.60
2022-11-02T06:01:32.282Z,17.58
2022-11-02T06:04:00.301Z,17.60
2022-11-02T06:06:27.871Z,17.53
2022-11-02T06:08:55.709Z,17.56
2022-11-02T06:11:23.614Z,17.52
2022-11-02T06:13:51.934Z,17.60
2022-11-02T06:16:23.282Z,17.61
2022-11-02T06:18:51.191Z,17.58
2022-11-02T06:21:19.047Z,17.43
2022-11-02T06:23:50.794Z,17.36
2022-11-02T06:26:19.215Z,17.41
2022-11-02T06:28:46.978Z,17.37
2022-11-02T06:31:17.724Z,17.38
2022-11-02T06:33:46.361Z,17.47
2022-11-02T06:36:13.951Z,17.53
2022-11-02T06:38:42.526Z,17.55
2022-11-02T06:41:10.805Z,17.60
2022-11-02T06:43:40.209Z,17.59
2022-11-02T06:46:08.564Z,17.59
2022-11-02T06:48:36.406Z,17.59
2022-11-02T06:51:06.680Z,17.66
2022-11-02T06:53:39.010Z,17.56
2022-11-02T06:56:09.246Z,17.43
2022-11-02T06:58:40.365Z,17.60
2022-11-02T07:01:09.621Z,17.73
2022-11-02T07:03:37.515Z,17.78
2022-11-02T07:06:11.075Z,17.88
2022-11-02T07:08:42.929Z,17.85
2022-11-02T07:11:16.719Z,18.12
2022-11-02T07:13:44.565Z,18.20
2022-11-02T07:16:12.276Z,18.34
2022-11-02T07:18:40.904Z,18.46
2022-11-02T07:21:10.780Z,18.58
2022-11-02T07:23:38.764Z,18.75
2022-11-02T07:26:06.552Z,18.77
2022-11-02T07:28:37.176Z,18.85
2022-11-02T07:31:05.703Z,18.94
2022-11-02T07:33:35.535Z,18.99
2022-11-02T07:36:04.599Z,19.01
2022-11-02T07:38:32.134Z,19.15
2022-11-02T07:40:59.913Z,19.14
2022-11-02T07:43:27.439Z,19.29
2022-11-02T07:46:02.380Z,19.37
2022-11-02T07:48:29.714Z,19.49
2022-11-02T07:51:00.443Z,19.71
2022-11-02T07:53:28.108Z,19.75
2022-11-02T07:55:56.297Z,19.85
2022-11-02T07:58:23.961Z,19.92
2022-11-02T08:00:54.759Z,20.01
2022-11-02T08:03:24.715Z,19.90
2022-11-02T08:05:52.509Z,20.06
2022-11-02T08:08:24.638Z,20.14
2022-11-02T08:10:53.265Z,20.22
2022-11-02T08:13:23.456Z,20.31
2022-11-02T08:15:52.509Z,20.33
2022-11-02T08:18:27.554Z,20.43
2022-11-02T08:20:59.858Z,20.47
2022-11-02T08:23:27.819Z,20.54
2022-11-02T08:25:55.823Z,20.67
2022-11-02T08:28:31.572Z,20.50
2022-11-02T08:31:00.028Z,20.60
2022-11-02T08:33:27.777Z,20.68
2022-11-02T08:35:55.262Z,20.70
2022-11-02T08:38:23.099Z,20.72
2022-11-02T08:40:50.539Z,20.77
2022-11-02T08:43:17.781Z,20.89
2022-11-02T08:48:33.830Z,21.07
2022-11-02T08:51:01.976Z,21.16
2022-11-02T08:53:30.001Z,21.25
2022-11-02T08:55:59.457Z,21.39
2022-11-02T08:58:31.116Z,21.49
2022-11-02T09:00:59.888Z,21.65
2022-11-02T09:03:28.593Z,21.74
2022-11-02T09:06:01.174Z,21.74
2022-11-02T09:08:30.548Z,21.88
2022-11-02T09:11:00.895Z,21.99
2022-11-02T09:13:29.074Z,22.07
2022-11-02T09:15:58.397Z,22.14
2022-11-02T09:18:29.498Z,22.27
2022-11-02T09:20:57.144Z,22.35
2022-11-02T09:23:25.869Z,22.38
2022-11-02T09:25:54.340Z,22.60
2022-11-02T09:28:27.957Z,22.74
2022-11-02T09:31:00.942Z,22.79
2022-11-02T09:33:30.132Z,22.79
2022-11-02T09:36:03.552Z,23.00
2022-11-02T09:38:31.519Z,22.98
2022-11-02T09:40:58.924Z,22.97
2022-11-02T09:43:35.009Z,23.01
2022-11-02T09:46:26.716Z,23.03
2022-11-02T09:49:06.151Z,23.04
2022-11-02T09:51:37.916Z,23.08
2022-11-02T09:54:35.332Z,23.09
2022-11-02T09:57:10.789Z,23.16
2022-11-02T09:59:38.307Z,22.98
2022-11-02T10:02:31.177Z,23.12
2022-11-02T10:05:10.207Z,23.09
2022-11-02T10:08:08.726Z,23.02
2022-11-02T10:11:17.444Z,23.02
2022-11-02T10:14:05.209Z,22.98
2022-11-02T10:16:40.615Z,23.01
2022-11-02T10:19:18.297Z,23.08
2022-11-02T10:21:49.237Z,23.18
2022-11-02T10:24:46.082Z,23.13
2022-11-02T10:27:26.724Z,23.07
2022-11-02T10:30:19.615Z,23.24
2022-11-02T10:32:55.172Z,23.28
2022-11-02T10:36:04.904Z,23.31
2022-11-02T10:38:36.630Z,23.33
2022-11-02T10:41:40.424Z,23.29
2022-11-02T10:44:45.135Z,23.23
2022-11-02T10:47:20.835Z,23.25
2022-11-02T10:50:12.725Z,23.17
2022-11-02T10:52:44.931Z,23.27
2022-11-02T10:55:40.625Z,23.29
2022-11-02T10:58:15.941Z,23.18
2022-11-02T11:00:44.922Z,23.25
2022-11-02T11:03:15.128Z,23.31
2022-11-02T11:05:52.049Z,23.18
2022-11-02T11:08:42.157Z,23.28
2022-11-02T11:11:26.513Z,23.27
2022-11-02T11:20:07.268Z,23.37
2022-11-02T11:22:40.106Z,23.33
2022-11-02T11:25:13.425Z,23.42
2022-11-02T11:27:48.312Z,23.54
2022-11-02T11:33:33.464Z,23.64
2022-11-02T11:36:01.683Z,23.57
2022-11-02T11:38:29.192Z,23.63
2022-11-02T11:40:59.802Z,23.63
2022-11-02T11:43:31.338Z,23.59
2022-11-02T11:46:06.246Z,23.48
2022-11-02T11:48:40.289Z,23.54
2022-11-02T11:51:28.170Z,23.70
2022-11-02T11:54:43.939Z,23.61
2022-11-02T11:57:29.597Z,23.72
2022-11-02T12:00:00.250Z,23.71
2022-11-02T12:02:27.884Z,23.73
2022-11-02T12:05:22.492Z,23.72
2022-11-02T12:08:09.023Z,23.78
2022-11-02T12:11:19.295Z,23.73
2022-11-02T12:14:31.311Z,23.66
2022-11-02T12:17:22.764Z,23.68
2022-11-02T12:20:27.949Z,23.77
2022-11-02T12:23:13.760Z,23.78
2022-11-02T12:25:52.211Z,23.78
2022-11-02T12:28:45.844Z,23.78
2022-11-02T12:31:37.493Z,23.74
2022-11-02T12:34:36.963Z,23.83
2022-11-02T12:37:40.776Z,23.90
2022-11-02T12:40:30.970Z,23.92
2022-11-02T12:43:13.820Z,23.92
2022-11-02T12:46:30.711Z,23.99
2022-11-02T12:49:27.592Z,24.04
2022-11-02T12:52:27.110Z,24.06
2022-11-02T12:55:01.686Z,24.04
2022-11-02T12:57:35.016Z,23.93
2022-11-02T13:00:07.910Z,23.93
2022-11-02T13:02:57.360Z,23.97
2022-11-02T13:05:35.125Z,24.04
2022-11-02T13:08:23.275Z,24.08
2022-11-02T13:10:59.677Z,24.07
2022-11-02T13:13:33.604Z,24.11
2022-11-02T13:16:04.594Z,24.07
2022-11-02T13:18:43.881Z,24.05
2022-11-02T13:21:22.404Z,24.08
2022-11-02T13:23:58.787Z,24.02
2022-11-02T13:26:43.226Z,24.09
2022-11-02T13:29:37.950Z,24.05
2022-11-02T13:32:40.222Z,24.03
2022-11-02T13:38:47.430Z,23.96
2022-11-02T13:41:20.552Z,23.80
2022-11-02T13:43:47.990Z,23.79
2022-11-02T13:46:48.247Z,23.65
2022-11-02T13:49:19.345Z,23.59
2022-11-02T13:51:57.388Z,23.54
2022-11-02T13:57:39.140Z,23.34
2022-11-02T14:00:32.026Z,23.36
2022-11-02T14:03:34.034Z,23.39
2022-11-02T14:06:12.442Z,23.38
2022-11-02T14:08:49.594Z,23.33
2022-11-02T14:11:17.590Z,23.35
2022-11-02T14:13:57.648Z,23.28
2022-11-02T14:16:43.954Z,23.20
2022-11-02T14:19:24.393Z,23.14
2022-11-02T14:21:52.956Z,23.09
2022-11-02T14:24:39.784Z,23.09
2022-11-02T14:27:14.390Z,23.04
2022-11-02T14:29:47.588Z,22.95
2022-11-02T14:32:37.981Z,22.93
2022-11-02T14:35:23.933Z,22.91
2022-11-02T14:38:14.000Z,22.76
2022-11-02T14:41:05.770Z,22.67
2022-11-02T14:44:03.920Z,22.69
2022-11-02T14:46:38.377Z,22.50
2022-11-02T14:49:18.081Z,22.45
2022-11-02T14:52:04.702Z,22.42
2022-11-02T14:54:40.805Z,22.42
2022-11-02T14:57:30.303Z,22.41
2022-11-02T15:00:02.655Z,22.42
2022-11-02T15:02:41.965Z,22.43
2022-11-02T15:05:23.109Z,22.40
2022-11-02T15:07:50.831Z,22.40
2022-11-02T15:10:18.621Z,22.35
2022-11-02T15:12:50.435Z,22.32
2022-11-02T15:15:37.311Z,22.22
2022-11-02T15:18:28.374Z,22.17
2022-11-02T15:21:10.516Z,22.16
2022-11-02T15:23:47.223Z,22.12
2022-11-02T15:26:48.516Z,22.07
2022-11-02T15:29:31.695Z,22.06
2022-11-02T15:32:02.494Z,22.05
2022-11-02T15:34:48.127Z,22.01
2022-11-02T15:37:29.304Z,21.97
2022-11-02T15:40:04.243Z,22.02
2022-11-02T15:42:48.342Z,22.00
2022-11-02T15:45:46.789Z,21.94
2022-11-02T15:48:57.446Z,21.93
2022-11-02T15:51:45.694Z,21.90
2022-11-02T15:54:29.065Z,21.92
2022-11-02T15:57:05.259Z,21.96
2022-11-02T15:59:37.685Z,21.97
2022-11-02T16:02:56.724Z,21.99
2022-11-02T16:05:27.406Z,22.03
2022-11-02T16:08:10.476Z,21.98
2022-11-02T16:10:39.522Z,21.97
2022-11-02T16:13:20.690Z,21.92
2022-11-02T16:15:50.244Z,21.89
2022-11-02T16:18:30.224Z,21.94
2022-11-02T16:21:01.605Z,21.90
2022-11-02T16:23:49.445Z,21.84
2022-11-02T16:26:27.082Z,21.85
2022-11-02T16:29:00.867Z,21.84
2022-11-02T16:31:32.968Z,21.82
2022-11-02T16:34:30.691Z,21.74
2022-11-02T16:37:03.768Z,21.71
2022-11-02T16:39:42.310Z,21.68
2022-11-02T16:42:26.920Z,21.68
2022-11-02T16:45:05.938Z,21.67
2022-11-02T16:47:43.978Z,21.66
2022-11-02T16:50:24.191Z,21.67
2022-11-02T16:52:57.498Z,21.67
2022-11-02T16:55:43.626Z,21.64
2022-11-02T16:58:27.274Z,21.56
2022-11-02T17:01:05.896Z,21.57
2022-11-02T17:03:35.326Z,21.54
2022-11-02T17:06:07.962Z,21.51
2022-11-02T17:08:41.091Z,21.51
2022-11-02T17:11:16.023Z,21.48
2022-11-02T17:14:01.839Z,21.47
2022-11-02T17:16:37.622Z,21.41
2022-11-02T17:19:40.581Z,21.42
2022-11-02T17:22:15.761Z,21.40
2022-11-02T17:24:43.896Z,21.39
2022-11-02T17:27:25.113Z,21.40
2022-11-02T17:29:57.485Z,21.40
2022-11-02T17:32:25.747Z,21.36
2022-11-02T17:34:56.468Z,21.35
2022-11-02T17:37:32.396Z,21.32
2022-11-02T17:40:03.798Z,21.33
2022-11-02T17:42:54.988Z,21.33
2022-11-02T17:45:40.480Z,21.32
2022-11-02T17:48:11.124Z,21.29
2022-11-02T17:50:40.988Z,21.29
2022-11-02T17:53:13.479Z,21.27
2022-11-02T17:55:41.371Z,21.29
2022-11-02T17:58:10.378Z,21.31
2022-11-02T18:00:41.770Z,21.29
2022-11-02T18:03:19.453Z,21.27
2022-11-02T18:05:51.588Z,21.22
2022-11-02T18:08:21.260Z,21.22
2022-11-02T18:10:52.220Z,21.20
2022-11-02T18:13:35.383Z,21.20
2022-11-02T18:16:04.937Z,21.14
2022-11-02T18:18:32.435Z,21.15
2022-11-02T18:20:59.987Z,21.16
2022-11-02T18:23:31.755Z,21.17
2022-11-02T18:26:00.107Z,21.17
2022-11-02T18:28:28.030Z,21.19
2022-11-02T18:30:55.588Z,21.20
2022-11-02T18:33:23.491Z,21.20
2022-11-02T18:35:53.429Z,21.18
2022-11-02T18:38:20.959Z,21.16
2022-11-02T18:40:49.550Z,21.17
2022-11-02T18:43:17.146Z,21.15
2022-11-02T18:45:50.367Z,21.15
2022-11-02T18:48:18.095Z,21.13
2022-11-02T18:50:46.186Z,21.11
2022-11-02T18:53:14.233Z,21.12
2022-11-02T18:55:42.359Z,21.11
2022-11-02T18:58:12.356Z,21.11
2022-11-02T19:00:48.245Z,21.11
2022-11-02T19:03:20.544Z,21.09
2022-11-02T19:06:06.985Z,21.06
2022-11-02T19:08:53.264Z,21.06
2022-11-02T19:11:21.069Z,21.04
2022-11-02T19:13:48.526Z,21.03
2022-11-02T19:16:16.548Z,21.05
2022-11-02T19:18:44.560Z,20.97
2022-11-02T19:21:12.292Z,20.94
2022-11-02T19:23:45.315Z,20.87
2022-11-02T19:26:14.454Z,20.87
2022-11-02T19:28:42.400Z,20.89
2022-11-02T19:31:12.514Z,20.82
2022-11-02T19:33:40.883Z,20.80
2022-11-02T19:36:09.375Z,20.75
2022-11-02T19:38:38.917Z,20.73
2022-11-02T19:41:19.434Z,20.66
2022-11-02T19:43:47.723Z,20.58
2022-11-02T19:46:24.787Z,20.55
2022-11-02T19:48:53.374Z,20.39
2022-11-02T19:51:22.468Z,20.44
2022-11-02T19:53:58.650Z,20.45
2022-11-02T19:56:30.581Z,20.45
2022-11-02T19:58:59.050Z,20.44
2022-11-02T20:01:29.908Z,20.39
2022-11-02T20:03:59.451Z,20.41
2022-11-02T20:06:33.557Z,20.33
2022-11-02T20:09:06.394Z,20.34
2022-11-02T20:11:36.822Z,20.35
2022-11-02T20:14:06.225Z,20.33
2022-11-02T20:16:34.039Z,20.33
2022-11-02T20:19:01.654Z,20.34
2022-11-02T20:21:34.565Z,20.33
2022-11-02T20:24:06.632Z,20.34
2022-11-02T20:26:43.722Z,20.32
2022-11-02T20:29:15.355Z,20.33
2022-11-02T20:31:46.265Z,20.32
2022-11-02T20:34:18.464Z,20.29
2022-11-02T20:36:47.998Z,20.26
2022-11-02T20:39:25.034Z,20.25
2022-11-02T20:41:56.373Z,20.22
2022-11-02T20:44:24.441Z,20.20
2022-11-02T20:46:53.247Z,20.22
2022-11-02T20:49:48.652Z,20.14
2022-11-02T20:52:11.402Z,20.12
2022-11-02T20:54:39.065Z,20.11
2022-11-02T20:57:14.257Z,20.07
2022-11-02T20:59:45.645Z,20.02
2022-11-02T21:02:14.457Z,20.01
2022-11-02T21:04:42.262Z,20.02
2022-11-02T21:07:09.962Z,20.02
2022-11-02T21:09:41.382Z,20.01
2022-11-02T21:12:41.182Z,19.95
2022-11-02T21:15:09.539Z,19.86
2022-11-02T21:17:37.163Z,19.81
2022-11-02T21:20:35.408Z,19.80
2022-11-02T21:22:53.625Z,19.74
2022-11-02T21:25:21.552Z,19.57
2022-11-02T21:27:56.152Z,19.50
2022-11-02T21:30:23.786Z,19.48
2022-11-02T21:33:12.686Z,19.40
2022-11-02T21:35:43.274Z,19.39
2022-11-02T21:38:10.949Z,19.45
2022-11-02T21:40:38.827Z,19.48
2022-11-02T21:43:06.974Z,19.48
2022-11-02T21:45:37.916Z,19.52
2022-11-02T21:48:06.624Z,19.50
2022-11-02T21:50:34.737Z,19.44
2022-11-02T21:53:02.401Z,19.41
2022-11-02T21:55:30.157Z,19.43
2022-11-02T21:57:57.494Z,19.39
2022-11-02T22:00:45.085Z,19.44
2022-11-02T22:03:12.678Z,19.45
2022-11-02T22:05:56.138Z,19.38
2022-11-02T22:08:40.352Z,19.32
2022-11-02T22:11:23.412Z,19.23
2022-11-02T22:14:01.798Z,19.19
2022-11-02T22:16:42.967Z,19.10
2022-11-02T22:19:15.750Z,19.11
2022-11-02T22:21:45.764Z,19.12
2022-11-02T22:24:13.738Z,19.07
2022-11-02T22:26:42.166Z,19.12
2022-11-02T22:29:23.803Z,19.09
2022-11-02T22:31:51.995Z,19.14
2022-11-02T22:34:20.036Z,19.16
2022-11-02T22:36:50.179Z,19.15
2022-11-02T22:39:21.790Z,19.14
2022-11-02T22:41:50.464Z,19.15
2022-11-02T22:44:21.324Z,19.11
2022-11-02T22:46:50.470Z,18.99
2022-11-02T22:49:20.254Z,18.99
2022-11-02T22:51:50.367Z,19.03
2022-11-02T22:54:19.846Z,19.02
2022-11-02T22:56:49.243Z,18.93
2022-11-02T22:59:17.515Z,18.86
2022-11-02T23:01:45.602Z,18.92
2022-11-02T23:04:13.939Z,18.88
2022-11-02T23:06:41.317Z,18.89
2022-11-02T23:09:12.594Z,18.81
2022-11-02T23:11:44.482Z,18.77
2022-11-02T23:14:14.530Z,18.66
2022-11-02T23:16:44.366Z,18.56
2022-11-02T23:19:33.059Z,18.66
2022-11-02T23:22:25.850Z,18.66
2022-11-02T23:25:12.404Z,18.61
2022-11-02T23:28:27.490Z,18.65
2022-11-02T23:31:15.028Z,18.59
2022-11-02T23:33:42.576Z,18.68
2022-11-02T23:36:14.162Z,18.58
2022-11-02T23:39:03.233Z,18.51
2022-11-02T23:41:32.953Z,18.47
2022-11-02T23:44:14.320Z,18.41
2022-11-02T23:46:44.312Z,18.28
2022-11-02T23:49:13.642Z,18.23
2022-11-02T23:52:00.377Z,18.21
2022-11-02T23:54:47.151Z,18.23
2022-11-02T23:57:14.694Z,18.22
2022-11-02T23:59:42.308Z,18.21
